sensor_id;sensor_type;location;lat;lon;timestamp;P1;durP1;ratioP1;P2;durP2;ratioP2
57297;SDS011;43147;50.972;18.210;2024-03-02T00:02:24;111.90;;;43.10;;
57297;SDS011;43147;50.972;18.210;2024-03-02T00:04:52;105.90;;;43.10;;
57297;SDS011;43147;50.972;18.210;2024-03-02T00:07:17;159.00;;;91.10;;
57297;SDS011;43147;50.972;18.210;2024-03-02T00:09:43;113.00;;;43.50;;
57297;SDS011;43147;50.972;18.210;2024-03-02T00:12:11;110.60;;;44.20;;
57297;SDS011;43147;50.972;18.210;2024-03-02T00:14:37;114.10;;;41.70;;
57297;SDS011;43147;50.972;18.210;2024-03-02T00:17:03;122.70;;;44.60;;
57297;SDS011;43147;50.972;18.210;2024-03-02T00:19:29;99.00;;;42.40;;
57297;SDS011;43147;50.972;18.210;2024-03-02T00:21:54;110.90;;;44.70;;
57297;SDS011;43147;50.972;18.210;2024-03-02T00:24:21;119.40;;;45.10;;
57297;SDS011;43147;50.972;18.210;2024-03-02T00:26:50;110.60;;;46.40;;
57297;SDS011;43147;50.972;18.210;2024-03-02T00:29:15;145.20;;;84.00;;
57297;SDS011;43147;50.972;18.210;2024-03-02T00:31:47;117.10;;;40.10;;
57297;SDS011;43147;50.972;18.210;2024-03-02T00:34:13;114.70;;;42.30;;
57297;SDS011;43147;50.972;18.210;2024-03-02T00:36:41;103.30;;;41.20;;
57297;SDS011;43147;50.972;18.210;2024-03-02T00:39:07;112.60;;;46.00;;
57297;SDS011;43147;50.972;18.210;2024-03-02T00:41:33;112.70;;;45.50;;
57297;SDS011;43147;50.972;18.210;2024-03-02T00:44:00;121.60;;;48.70;;
57297;SDS011;43147;50.972;18.210;2024-03-02T00:46:35;108.00;;;41.70;;
57297;SDS011;43147;50.972;18.210;2024-03-02T00:49:02;108.60;;;45.70;;
57297;SDS011;43147;50.972;18.210;2024-03-02T00:51:29;116.30;;;47.10;;
57297;SDS011;43147;50.972;18.210;2024-03-02T00:54:00;136.50;;;45.50;;
57297;SDS011;43147;50.972;18.210;2024-03-02T00:56:30;108.90;;;46.10;;
57297;SDS011;43147;50.972;18.210;2024-03-02T00:58:56;104.70;;;42.20;;
57297;SDS011;43147;50.972;18.210;2024-03-02T01:01:23;116.30;;;44.30;;
57297;SDS011;43147;50.972;18.210;2024-03-02T01:03:48;102.60;;;46.30;;
57297;SDS011;43147;50.972;18.210;2024-03-02T01:06:14;113.30;;;46.50;;
57297;SDS011;43147;50.972;18.210;2024-03-02T01:08:43;99.10;;;41.40;;
57297;SDS011;43147;50.972;18.210;2024-03-02T01:11:08;140.20;;;84.20;;
57297;SDS011;43147;50.972;18.210;2024-03-02T01:13:34;106.90;;;42.80;;
57297;SDS011;43147;50.972;18.210;2024-03-02T01:15:59;103.50;;;41.60;;
57297;SDS011;43147;50.972;18.210;2024-03-02T01:18:25;114.20;;;47.90;;
57297;SDS011;43147;50.972;18.210;2024-03-02T01:20:51;110.10;;;45.50;;
57297;SDS011;43147;50.972;18.210;2024-03-02T01:23:18;100.30;;;43.40;;
57297;SDS011;43147;50.972;18.210;2024-03-02T01:25:45;106.50;;;45.10;;
57297;SDS011;43147;50.972;18.210;2024-03-02T01:28:12;111.20;;;45.90;;
57297;SDS011;43147;50.972;18.210;2024-03-02T01:30:38;111.40;;;44.20;;
57297;SDS011;43147;50.972;18.210;2024-03-02T01:33:04;105.20;;;44.20;;
57297;SDS011;43147;50.972;18.210;2024-03-02T01:35:31;110.30;;;47.00;;
57297;SDS011;43147;50.972;18.210;2024-03-02T01:37:56;142.00;;;84.20;;
57297;SDS011;43147;50.972;18.210;2024-03-02T01:40:22;122.20;;;43.60;;
57297;SDS011;43147;50.972;18.210;2024-03-02T01:42:51;120.50;;;47.60;;
57297;SDS011;43147;50.972;18.210;2024-03-02T01:45:17;126.30;;;47.40;;
57297;SDS011;43147;50.972;18.210;2024-03-02T01:47:43;100.10;;;42.60;;
57297;SDS011;43147;50.972;18.210;2024-03-02T01:50:09;107.80;;;44.70;;
57297;SDS011;43147;50.972;18.210;2024-03-02T01:52:36;114.40;;;46.40;;
57297;SDS011;43147;50.972;18.210;2024-03-02T01:55:03;104.80;;;42.20;;
57297;SDS011;43147;50.972;18.210;2024-03-02T01:57:35;100.70;;;40.60;;
57297;SDS011;43147;50.972;18.210;2024-03-02T02:00:00;110.80;;;55.30;;
57297;SDS011;43147;50.972;18.210;2024-03-02T02:02:26;89.50;;;39.50;;
57297;SDS011;43147;50.972;18.210;2024-03-02T02:04:52;106.90;;;43.70;;
57297;SDS011;43147;50.972;18.210;2024-03-02T02:07:17;104.40;;;42.10;;
57297;SDS011;43147;50.972;18.210;2024-03-02T02:09:43;97.30;;;41.20;;
57297;SDS011;43147;50.972;18.210;2024-03-02T02:12:09;102.30;;;41.30;;
57297;SDS011;43147;50.972;18.210;2024-03-02T02:14:35;99.00;;;39.10;;
57297;SDS011;43147;50.972;18.210;2024-03-02T02:17:00;83.40;;;39.70;;
57297;SDS011;43147;50.972;18.210;2024-03-02T02:19:26;103.70;;;40.80;;
57297;SDS011;43147;50.972;18.210;2024-03-02T02:21:51;113.30;;;70.40;;
57297;SDS011;43147;50.972;18.210;2024-03-02T02:24:17;92.70;;;33.50;;
57297;SDS011;43147;50.972;18.210;2024-03-02T02:26:43;93.90;;;38.50;;
57297;SDS011;43147;50.972;18.210;2024-03-02T02:29:08;87.20;;;40.00;;
57297;SDS011;43147;50.972;18.210;2024-03-02T02:31:40;82.70;;;37.10;;
57297;SDS011;43147;50.972;18.210;2024-03-02T02:34:06;90.00;;;37.70;;
57297;SDS011;43147;50.972;18.210;2024-03-02T02:36:36;97.90;;;37.20;;
57297;SDS011;43147;50.972;18.210;2024-03-02T02:39:03;97.70;;;36.90;;
57297;SDS011;43147;50.972;18.210;2024-03-02T02:41:29;111.50;;;71.30;;
57297;SDS011;43147;50.972;18.210;2024-03-02T02:43:55;106.20;;;44.30;;
57297;SDS011;43147;50.972;18.210;2024-03-02T02:46:20;90.50;;;39.10;;
57297;SDS011;43147;50.972;18.210;2024-03-02T02:48:46;93.40;;;38.40;;
57297;SDS011;43147;50.972;18.210;2024-03-02T02:51:12;111.80;;;70.00;;
57297;SDS011;43147;50.972;18.210;2024-03-02T02:53:37;92.20;;;35.70;;
57297;SDS011;43147;50.972;18.210;2024-03-02T02:56:08;86.60;;;39.40;;
57297;SDS011;43147;50.972;18.210;2024-03-02T02:58:35;91.20;;;40.10;;
57297;SDS011;43147;50.972;18.210;2024-03-02T03:01:00;87.90;;;37.50;;
57297;SDS011;43147;50.972;18.210;2024-03-02T03:03:26;93.80;;;39.20;;
57297;SDS011;43147;50.972;18.210;2024-03-02T03:05:52;91.60;;;38.60;;
57297;SDS011;43147;50.972;18.210;2024-03-02T03:08:17;108.20;;;66.80;;
57297;SDS011;43147;50.972;18.210;2024-03-02T03:10:43;79.70;;;35.80;;
57297;SDS011;43147;50.972;18.210;2024-03-02T03:13:08;94.30;;;37.50;;
57297;SDS011;43147;50.972;18.210;2024-03-02T03:15:34;94.60;;;37.80;;
57297;SDS011;43147;50.972;18.210;2024-03-02T03:18:02;105.60;;;66.90;;
57297;SDS011;43147;50.972;18.210;2024-03-02T03:20:29;93.60;;;37.10;;
57297;SDS011;43147;50.972;18.210;2024-03-02T03:22:55;85.10;;;40.50;;
57297;SDS011;43147;50.972;18.210;2024-03-02T03:25:21;92.20;;;40.70;;
57297;SDS011;43147;50.972;18.210;2024-03-02T03:27:46;106.10;;;66.60;;
57297;SDS011;43147;50.972;18.210;2024-03-02T03:30:12;80.30;;;35.80;;
57297;SDS011;43147;50.972;18.210;2024-03-02T03:32:38;85.60;;;38.60;;
57297;SDS011;43147;50.972;18.210;2024-03-02T03:35:04;89.80;;;40.60;;
57297;SDS011;43147;50.972;18.210;2024-03-02T03:37:31;85.00;;;40.10;;
57297;SDS011;43147;50.972;18.210;2024-03-02T03:40:01;99.00;;;41.60;;
57297;SDS011;43147;50.972;18.210;2024-03-02T03:42:28;84.80;;;39.30;;
57297;SDS011;43147;50.972;18.210;2024-03-02T03:44:54;92.60;;;42.60;;
57297;SDS011;43147;50.972;18.210;2024-03-02T03:47:19;108.60;;;42.80;;
57297;SDS011;43147;50.972;18.210;2024-03-02T03:49:48;114.20;;;69.70;;
57297;SDS011;43147;50.972;18.210;2024-03-02T03:52:14;92.90;;;39.70;;
57297;SDS011;43147;50.972;18.210;2024-03-02T03:54:39;90.80;;;37.60;;
57297;SDS011;43147;50.972;18.210;2024-03-02T03:57:05;82.90;;;39.70;;
57297;SDS011;43147;50.972;18.210;2024-03-02T03:59:31;89.00;;;41.10;;
57297;SDS011;43147;50.972;18.210;2024-03-02T04:01:56;93.50;;;41.20;;
57297;SDS011;43147;50.972;18.210;2024-03-02T04:04:22;102.60;;;40.80;;
57297;SDS011;43147;50.972;18.210;2024-03-02T04:06:47;85.90;;;38.70;;
57297;SDS011;43147;50.972;18.210;2024-03-02T04:09:13;91.20;;;48.80;;
57297;SDS011;43147;50.972;18.210;2024-03-02T04:11:38;92.60;;;39.80;;
57297;SDS011;43147;50.972;18.210;2024-03-02T04:14:03;84.20;;;39.10;;
57297;SDS011;43147;50.972;18.210;2024-03-02T04:16:31;85.00;;;36.80;;
57297;SDS011;43147;50.972;18.210;2024-03-02T04:18:56;95.20;;;38.70;;
57297;SDS011;43147;50.972;18.210;2024-03-02T04:21:22;79.10;;;37.80;;
57297;SDS011;43147;50.972;18.210;2024-03-02T04:23:48;87.00;;;39.60;;
57297;SDS011;43147;50.972;18.210;2024-03-02T04:26:13;82.90;;;38.40;;
57297;SDS011;43147;50.972;18.210;2024-03-02T04:28:40;98.20;;;38.00;;
57297;SDS011;43147;50.972;18.210;2024-03-02T04:31:05;92.40;;;38.70;;
57297;SDS011;43147;50.972;18.210;2024-03-02T04:33:31;87.90;;;40.20;;
57297;SDS011;43147;50.972;18.210;2024-03-02T04:35:56;93.20;;;62.90;;
57297;SDS011;43147;50.972;18.210;2024-03-02T04:38:22;79.00;;;33.60;;
57297;SDS011;43147;50.972;18.210;2024-03-02T04:40:48;84.10;;;34.50;;
57297;SDS011;43147;50.972;18.210;2024-03-02T04:43:13;87.40;;;36.20;;
57297;SDS011;43147;50.972;18.210;2024-03-02T04:45:41;86.50;;;34.90;;
57297;SDS011;43147;50.972;18.210;2024-03-02T04:48:08;80.60;;;35.60;;
57297;SDS011;43147;50.972;18.210;2024-03-02T04:50:33;84.80;;;37.40;;
57297;SDS011;43147;50.972;18.210;2024-03-02T04:52:59;78.00;;;35.80;;
57297;SDS011;43147;50.972;18.210;2024-03-02T04:55:24;75.40;;;33.00;;
57297;SDS011;43147;50.972;18.210;2024-03-02T04:57:52;73.50;;;33.50;;
57297;SDS011;43147;50.972;18.210;2024-03-02T05:00:20;71.70;;;33.30;;
57297;SDS011;43147;50.972;18.210;2024-03-02T05:02:46;73.30;;;31.90;;
57297;SDS011;43147;50.972;18.210;2024-03-02T05:05:11;70.10;;;32.40;;
57297;SDS011;43147;50.972;18.210;2024-03-02T05:07:37;71.20;;;33.50;;
57297;SDS011;43147;50.972;18.210;2024-03-02T05:10:02;65.10;;;30.90;;
57297;SDS011;43147;50.972;18.210;2024-03-02T05:12:28;74.50;;;41.30;;
57297;SDS011;43147;50.972;18.210;2024-03-02T05:15:22;66.80;;;28.90;;
57297;SDS011;43147;50.972;18.210;2024-03-02T05:17:47;61.00;;;28.50;;
57297;SDS011;43147;50.972;18.210;2024-03-02T05:20:13;61.10;;;30.70;;
57297;SDS011;43147;50.972;18.210;2024-03-02T05:22:38;68.00;;;32.90;;
57297;SDS011;43147;50.972;18.210;2024-03-02T05:25:07;73.00;;;30.60;;
57297;SDS011;43147;50.972;18.210;2024-03-02T05:27:34;64.90;;;29.60;;
57297;SDS011;43147;50.972;18.210;2024-03-02T05:30:00;84.70;;;32.80;;
57297;SDS011;43147;50.972;18.210;2024-03-02T05:32:26;70.10;;;31.40;;
57297;SDS011;43147;50.972;18.210;2024-03-02T05:34:52;70.30;;;30.10;;
57297;SDS011;43147;50.972;18.210;2024-03-02T05:37:18;78.30;;;30.70;;
57297;SDS011;43147;50.972;18.210;2024-03-02T05:39:43;67.00;;;28.90;;
57297;SDS011;43147;50.972;18.210;2024-03-02T05:42:09;66.30;;;30.50;;
57297;SDS011;43147;50.972;18.210;2024-03-02T05:44:38;68.50;;;33.00;;
57297;SDS011;43147;50.972;18.210;2024-03-02T05:47:04;68.80;;;29.00;;
57297;SDS011;43147;50.972;18.210;2024-03-02T05:49:30;81.10;;;31.40;;
57297;SDS011;43147;50.972;18.210;2024-03-02T05:51:56;63.80;;;32.00;;
57297;SDS011;43147;50.972;18.210;2024-03-02T05:54:22;68.50;;;30.80;;
57297;SDS011;43147;50.972;18.210;2024-03-02T05:56:47;67.90;;;31.50;;
57297;SDS011;43147;50.972;18.210;2024-03-02T05:59:13;79.90;;;32.10;;
57297;SDS011;43147;50.972;18.210;2024-03-02T06:01:39;65.50;;;30.60;;
57297;SDS011;43147;50.972;18.210;2024-03-02T06:04:05;73.50;;;30.70;;
57297;SDS011;43147;50.972;18.210;2024-03-02T06:06:31;74.20;;;30.80;;
57297;SDS011;43147;50.972;18.210;2024-03-02T06:09:00;68.30;;;30.50;;
57297;SDS011;43147;50.972;18.210;2024-03-02T06:11:28;68.20;;;36.50;;
57297;SDS011;43147;50.972;18.210;2024-03-02T06:13:53;73.00;;;31.30;;
57297;SDS011;43147;50.972;18.210;2024-03-02T06:16:19;75.50;;;30.70;;
57297;SDS011;43147;50.972;18.210;2024-03-02T06:18:44;70.10;;;31.70;;
57297;SDS011;43147;50.972;18.210;2024-03-02T06:21:10;71.00;;;31.30;;
57297;SDS011;43147;50.972;18.210;2024-03-02T06:23:35;83.80;;;33.10;;
57297;SDS011;43147;50.972;18.210;2024-03-02T06:26:01;67.80;;;33.40;;
57297;SDS011;43147;50.972;18.210;2024-03-02T06:28:27;82.90;;;55.50;;
57297;SDS011;43147;50.972;18.210;2024-03-02T06:30:54;61.40;;;29.60;;
57297;SDS011;43147;50.972;18.210;2024-03-02T06:33:19;68.30;;;34.30;;
57297;SDS011;43147;50.972;18.210;2024-03-02T06:35:45;67.20;;;33.00;;
57297;SDS011;43147;50.972;18.210;2024-03-02T06:38:10;64.50;;;32.50;;
57297;SDS011;43147;50.972;18.210;2024-03-02T06:40:36;83.60;;;53.80;;
57297;SDS011;43147;50.972;18.210;2024-03-02T06:43:03;57.90;;;27.00;;
57297;SDS011;43147;50.972;18.210;2024-03-02T06:45:29;55.20;;;30.10;;
57297;SDS011;43147;50.972;18.210;2024-03-02T06:47:55;76.90;;;49.80;;
57297;SDS011;43147;50.972;18.210;2024-03-02T06:50:21;62.10;;;28.50;;
57297;SDS011;43147;50.972;18.210;2024-03-02T06:52:47;63.10;;;32.00;;
57297;SDS011;43147;50.972;18.210;2024-03-02T06:55:13;73.00;;;33.10;;
57297;SDS011;43147;50.972;18.210;2024-03-02T06:57:38;72.10;;;49.60;;
57297;SDS011;43147;50.972;18.210;2024-03-02T07:00:04;64.00;;;28.80;;
57297;SDS011;43147;50.972;18.210;2024-03-02T07:02:31;65.90;;;30.70;;
57297;SDS011;43147;50.972;18.210;2024-03-02T07:04:57;71.60;;;47.00;;
57297;SDS011;43147;50.972;18.210;2024-03-02T07:07:23;60.50;;;29.10;;
57297;SDS011;43147;50.972;18.210;2024-03-02T07:09:48;63.40;;;30.80;;
57297;SDS011;43147;50.972;18.210;2024-03-02T07:12:14;60.20;;;29.90;;
57297;SDS011;43147;50.972;18.210;2024-03-02T07:14:40;72.30;;;49.10;;
57297;SDS011;43147;50.972;18.210;2024-03-02T07:17:36;72.50;;;49.20;;
57297;SDS011;43147;50.972;18.210;2024-03-02T07:20:02;55.60;;;25.30;;
57297;SDS011;43147;50.972;18.210;2024-03-02T07:22:29;69.10;;;47.90;;
57297;SDS011;43147;50.972;18.210;2024-03-02T07:24:55;67.10;;;46.90;;
57297;SDS011;43147;50.972;18.210;2024-03-02T07:27:20;59.30;;;27.00;;
57297;SDS011;43147;50.972;18.210;2024-03-02T07:29:46;64.50;;;47.20;;
57297;SDS011;43147;50.972;18.210;2024-03-02T07:32:12;66.60;;;45.80;;
57297;SDS011;43147;50.972;18.210;2024-03-02T07:34:40;60.70;;;28.60;;
57297;SDS011;43147;50.972;18.210;2024-03-02T07:37:06;76.60;;;51.10;;
57297;SDS011;43147;50.972;18.210;2024-03-02T07:39:32;68.50;;;28.70;;
57297;SDS011;43147;50.972;18.210;2024-03-02T07:41:58;99.20;;;64.40;;
57297;SDS011;43147;50.972;18.210;2024-03-02T07:44:24;98.60;;;66.80;;
57297;SDS011;43147;50.972;18.210;2024-03-02T07:46:50;95.40;;;40.70;;
57297;SDS011;43147;50.972;18.210;2024-03-02T07:49:16;97.30;;;43.00;;
57297;SDS011;43147;50.972;18.210;2024-03-02T07:51:42;77.40;;;52.50;;
57297;SDS011;43147;50.972;18.210;2024-03-02T07:54:08;68.80;;;47.10;;
57297;SDS011;43147;50.972;18.210;2024-03-02T07:56:34;71.90;;;48.20;;
57297;SDS011;43147;50.972;18.210;2024-03-02T07:59:00;61.60;;;45.50;;
57297;SDS011;43147;50.972;18.210;2024-03-02T08:01:27;65.30;;;45.60;;
57297;SDS011;43147;50.972;18.210;2024-03-02T08:03:55;85.80;;;51.80;;
57297;SDS011;43147;50.972;18.210;2024-03-02T08:06:26;71.90;;;49.70;;
57297;SDS011;43147;50.972;18.210;2024-03-02T08:08:53;73.60;;;48.40;;
57297;SDS011;43147;50.972;18.210;2024-03-02T08:11:20;51.20;;;27.00;;
57297;SDS011;43147;50.972;18.210;2024-03-02T08:13:46;54.60;;;37.30;;
57297;SDS011;43147;50.972;18.210;2024-03-02T08:16:12;64.00;;;40.40;;
57297;SDS011;43147;50.972;18.210;2024-03-02T08:18:38;55.50;;;40.30;;
57297;SDS011;43147;50.972;18.210;2024-03-02T08:21:04;53.00;;;37.40;;
57297;SDS011;43147;50.972;18.210;2024-03-02T08:23:29;57.00;;;37.50;;
57297;SDS011;43147;50.972;18.210;2024-03-02T08:25:55;52.20;;;35.00;;
57297;SDS011;43147;50.972;18.210;2024-03-02T08:28:22;44.40;;;32.70;;
57297;SDS011;43147;50.972;18.210;2024-03-02T08:30:48;48.60;;;31.80;;
57297;SDS011;43147;50.972;18.210;2024-03-02T08:33:13;44.40;;;31.00;;
57297;SDS011;43147;50.972;18.210;2024-03-02T08:35:39;39.30;;;27.60;;
57297;SDS011;43147;50.972;18.210;2024-03-02T08:38:04;36.60;;;26.20;;
57297;SDS011;43147;50.972;18.210;2024-03-02T08:40:30;44.50;;;26.70;;
57297;SDS011;43147;50.972;18.210;2024-03-02T08:42:56;39.70;;;25.10;;
57297;SDS011;43147;50.972;18.210;2024-03-02T08:45:22;40.80;;;24.30;;
57297;SDS011;43147;50.972;18.210;2024-03-02T08:47:47;35.40;;;25.20;;
57297;SDS011;43147;50.972;18.210;2024-03-02T08:50:13;36.40;;;24.90;;
57297;SDS011;43147;50.972;18.210;2024-03-02T08:52:38;40.50;;;25.20;;
57297;SDS011;43147;50.972;18.210;2024-03-02T08:55:04;33.50;;;24.20;;
57297;SDS011;43147;50.972;18.210;2024-03-02T08:57:31;40.00;;;25.40;;
57297;SDS011;43147;50.972;18.210;2024-03-02T08:59:56;34.70;;;24.80;;
57297;SDS011;43147;50.972;18.210;2024-03-02T09:02:22;33.80;;;23.90;;
57297;SDS011;43147;50.972;18.210;2024-03-02T09:04:48;29.60;;;23.00;;
57297;SDS011;43147;50.972;18.210;2024-03-02T09:07:14;34.30;;;23.40;;
57297;SDS011;43147;50.972;18.210;2024-03-02T09:09:39;33.80;;;23.60;;
57297;SDS011;43147;50.972;18.210;2024-03-02T09:12:07;38.70;;;25.00;;
57297;SDS011;43147;50.972;18.210;2024-03-02T09:14:33;33.90;;;24.20;;
57297;SDS011;43147;50.972;18.210;2024-03-02T09:16:59;33.70;;;23.30;;
57297;SDS011;43147;50.972;18.210;2024-03-02T09:19:24;34.90;;;23.50;;
57297;SDS011;43147;50.972;18.210;2024-03-02T09:21:52;38.60;;;23.90;;
57297;SDS011;43147;50.972;18.210;2024-03-02T09:24:17;32.70;;;23.20;;
57297;SDS011;43147;50.972;18.210;2024-03-02T09:26:43;34.70;;;23.70;;
57297;SDS011;43147;50.972;18.210;2024-03-02T09:29:08;35.00;;;22.00;;
57297;SDS011;43147;50.972;18.210;2024-03-02T09:31:38;35.60;;;22.10;;
57297;SDS011;43147;50.972;18.210;2024-03-02T09:34:09;28.40;;;20.10;;
57297;SDS011;43147;50.972;18.210;2024-03-02T09:36:34;35.40;;;21.80;;
57297;SDS011;43147;50.972;18.210;2024-03-02T09:39:00;33.30;;;20.70;;
57297;SDS011;43147;50.972;18.210;2024-03-02T09:41:25;34.40;;;19.80;;
57297;SDS011;43147;50.972;18.210;2024-03-02T09:43:51;28.40;;;19.60;;
57297;SDS011;43147;50.972;18.210;2024-03-02T09:46:17;25.70;;;18.30;;
57297;SDS011;43147;50.972;18.210;2024-03-02T09:48:46;28.40;;;20.00;;
57297;SDS011;43147;50.972;18.210;2024-03-02T09:51:12;25.10;;;17.80;;
57297;SDS011;43147;50.972;18.210;2024-03-02T09:53:38;31.60;;;22.10;;
57297;SDS011;43147;50.972;18.210;2024-03-02T09:56:03;33.70;;;20.00;;
57297;SDS011;43147;50.972;18.210;2024-03-02T09:58:30;26.60;;;19.30;;
57297;SDS011;43147;50.972;18.210;2024-03-02T10:00:55;27.00;;;19.40;;
57297;SDS011;43147;50.972;18.210;2024-03-02T10:03:22;28.60;;;21.00;;
57297;SDS011;43147;50.972;18.210;2024-03-02T10:05:49;28.20;;;18.50;;
57297;SDS011;43147;50.972;18.210;2024-03-02T10:08:15;29.60;;;18.10;;
57297;SDS011;43147;50.972;18.210;2024-03-02T10:10:41;21.70;;;16.00;;
57297;SDS011;43147;50.972;18.210;2024-03-02T10:13:11;24.80;;;17.10;;
57297;SDS011;43147;50.972;18.210;2024-03-02T10:15:38;26.50;;;17.70;;
57297;SDS011;43147;50.972;18.210;2024-03-02T10:18:11;24.50;;;16.70;;
57297;SDS011;43147;50.972;18.210;2024-03-02T10:20:37;26.90;;;17.40;;
57297;SDS011;43147;50.972;18.210;2024-03-02T10:23:12;28.80;;;17.90;;
57297;SDS011;43147;50.972;18.210;2024-03-02T10:25:38;29.20;;;17.00;;
57297;SDS011;43147;50.972;18.210;2024-03-02T10:28:04;26.20;;;18.40;;
57297;SDS011;43147;50.972;18.210;2024-03-02T10:30:34;27.70;;;18.10;;
57297;SDS011;43147;50.972;18.210;2024-03-02T10:33:03;28.90;;;19.30;;
57297;SDS011;43147;50.972;18.210;2024-03-02T10:35:31;23.40;;;16.40;;
57297;SDS011;43147;50.972;18.210;2024-03-02T10:37:58;23.50;;;15.80;;
57297;SDS011;43147;50.972;18.210;2024-03-02T10:40:24;25.00;;;18.40;;
57297;SDS011;43147;50.972;18.210;2024-03-02T10:42:50;28.40;;;17.90;;
57297;SDS011;43147;50.972;18.210;2024-03-02T10:45:19;24.70;;;16.90;;
57297;SDS011;43147;50.972;18.210;2024-03-02T10:47:47;24.10;;;17.90;;
57297;SDS011;43147;50.972;18.210;2024-03-02T10:50:17;28.20;;;18.20;;
57297;SDS011;43147;50.972;18.210;2024-03-02T10:52:42;27.00;;;19.00;;
57297;SDS011;43147;50.972;18.210;2024-03-02T10:55:11;27.10;;;18.70;;
57297;SDS011;43147;50.972;18.210;2024-03-02T11:00:06;25.60;;;18.20;;
57297;SDS011;43147;50.972;18.210;2024-03-02T11:02:41;26.90;;;19.10;;
57297;SDS011;43147;50.972;18.210;2024-03-02T11:05:09;30.80;;;19.90;;
57297;SDS011;43147;50.972;18.210;2024-03-02T11:07:36;27.90;;;19.00;;
57297;SDS011;43147;50.972;18.210;2024-03-02T11:10:03;28.30;;;18.90;;
57297;SDS011;43147;50.972;18.210;2024-03-02T11:12:44;29.20;;;19.20;;
57297;SDS011;43147;50.972;18.210;2024-03-02T11:15:33;29.20;;;18.80;;
57297;SDS011;43147;50.972;18.210;2024-03-02T11:18:00;27.30;;;19.90;;
57297;SDS011;43147;50.972;18.210;2024-03-02T11:20:30;26.70;;;19.20;;
57297;SDS011;43147;50.972;18.210;2024-03-02T11:22:56;30.50;;;20.60;;
57297;SDS011;43147;50.972;18.210;2024-03-02T11:25:22;32.90;;;20.40;;
57297;SDS011;43147;50.972;18.210;2024-03-02T11:35:25;25.40;;;18.30;;
57297;SDS011;43147;50.972;18.210;2024-03-02T11:37:51;20.50;;;16.10;;
57297;SDS011;43147;50.972;18.210;2024-03-02T11:40:25;23.80;;;16.00;;
57297;SDS011;43147;50.972;18.210;2024-03-02T11:42:52;20.70;;;15.60;;
57297;SDS011;43147;50.972;18.210;2024-03-02T11:45:22;22.60;;;15.90;;
57297;SDS011;43147;50.972;18.210;2024-03-02T11:47:52;24.30;;;16.30;;
57297;SDS011;43147;50.972;18.210;2024-03-02T11:50:28;27.90;;;15.90;;
57297;SDS011;43147;50.972;18.210;2024-03-02T11:53:07;27.10;;;17.10;;
57297;SDS011;43147;50.972;18.210;2024-03-02T11:55:37;23.60;;;16.70;;
57297;SDS011;43147;50.972;18.210;2024-03-02T11:58:06;21.50;;;16.20;;
57297;SDS011;43147;50.972;18.210;2024-03-02T12:00:32;18.90;;;15.40;;
57297;SDS011;43147;50.972;18.210;2024-03-02T12:03:01;23.90;;;16.80;;
57297;SDS011;43147;50.972;18.210;2024-03-02T12:05:34;24.90;;;18.00;;
57297;SDS011;43147;50.972;18.210;2024-03-02T12:08:01;27.90;;;18.80;;
57297;SDS011;43147;50.972;18.210;2024-03-02T12:10:30;29.30;;;19.80;;
57297;SDS011;43147;50.972;18.210;2024-03-02T12:13:00;31.70;;;19.10;;
57297;SDS011;43147;50.972;18.210;2024-03-02T12:15:28;25.90;;;18.30;;
57297;SDS011;43147;50.972;18.210;2024-03-02T12:17:55;31.30;;;19.60;;
57297;SDS011;43147;50.972;18.210;2024-03-02T12:20:22;29.70;;;19.30;;
57297;SDS011;43147;50.972;18.210;2024-03-02T12:22:52;26.70;;;17.90;;
57297;SDS011;43147;50.972;18.210;2024-03-02T12:25:19;24.70;;;16.90;;
57297;SDS011;43147;50.972;18.210;2024-03-02T12:27:45;25.00;;;15.50;;
57297;SDS011;43147;50.972;18.210;2024-03-02T12:30:11;24.80;;;16.70;;
57297;SDS011;43147;50.972;18.210;2024-03-02T12:32:39;25.80;;;16.80;;
57297;SDS011;43147;50.972;18.210;2024-03-02T12:35:06;29.40;;;17.30;;
57297;SDS011;43147;50.972;18.210;2024-03-02T12:37:32;24.80;;;18.60;;
57297;SDS011;43147;50.972;18.210;2024-03-02T12:39:58;31.20;;;23.80;;
57297;SDS011;43147;50.972;18.210;2024-03-02T12:42:24;39.10;;;23.90;;
57297;SDS011;43147;50.972;18.210;2024-03-02T12:44:53;35.40;;;23.60;;
57297;SDS011;43147;50.972;18.210;2024-03-02T12:47:20;34.40;;;24.40;;
57297;SDS011;43147;50.972;18.210;2024-03-02T12:49:46;33.90;;;23.50;;
57297;SDS011;43147;50.972;18.210;2024-03-02T12:52:12;33.40;;;23.00;;
57297;SDS011;43147;50.972;18.210;2024-03-02T12:54:39;39.00;;;25.00;;
57297;SDS011;43147;50.972;18.210;2024-03-02T12:57:06;34.20;;;24.00;;
57297;SDS011;43147;50.972;18.210;2024-03-02T12:59:32;33.40;;;24.30;;
57297;SDS011;43147;50.972;18.210;2024-03-02T13:01:58;35.00;;;23.80;;
57297;SDS011;43147;50.972;18.210;2024-03-02T13:06:56;38.30;;;25.60;;
57297;SDS011;43147;50.972;18.210;2024-03-02T13:09:23;38.80;;;26.50;;
57297;SDS011;43147;50.972;18.210;2024-03-02T13:11:49;34.60;;;26.20;;
57297;SDS011;43147;50.972;18.210;2024-03-02T13:14:14;34.60;;;26.10;;
57297;SDS011;43147;50.972;18.210;2024-03-02T13:16:40;34.20;;;25.80;;
57297;SDS011;43147;50.972;18.210;2024-03-02T13:19:11;37.40;;;27.00;;
57297;SDS011;43147;50.972;18.210;2024-03-02T13:21:37;36.10;;;26.90;;
57297;SDS011;43147;50.972;18.210;2024-03-02T13:24:03;39.20;;;27.20;;
57297;SDS011;43147;50.972;18.210;2024-03-02T13:26:30;40.00;;;28.30;;
57297;SDS011;43147;50.972;18.210;2024-03-02T13:28:56;46.40;;;29.20;;
57297;SDS011;43147;50.972;18.210;2024-03-02T13:31:24;41.90;;;28.30;;
57297;SDS011;43147;50.972;18.210;2024-03-02T13:33:49;40.30;;;27.20;;
57297;SDS011;43147;50.972;18.210;2024-03-02T13:36:15;45.30;;;29.50;;
57297;SDS011;43147;50.972;18.210;2024-03-02T13:38:40;36.00;;;27.50;;
57297;SDS011;43147;50.972;18.210;2024-03-02T13:41:06;44.40;;;27.10;;
57297;SDS011;43147;50.972;18.210;2024-03-02T13:43:31;40.30;;;27.00;;
57297;SDS011;43147;50.972;18.210;2024-03-02T13:45:58;45.50;;;27.30;;
57297;SDS011;43147;50.972;18.210;2024-03-02T13:48:24;46.60;;;28.90;;
57297;SDS011;43147;50.972;18.210;2024-03-02T13:50:51;49.60;;;28.90;;
57297;SDS011;43147;50.972;18.210;2024-03-02T13:53:18;49.00;;;31.50;;
57297;SDS011;43147;50.972;18.210;2024-03-02T13:55:44;46.30;;;30.80;;
57297;SDS011;43147;50.972;18.210;2024-03-02T13:58:10;44.60;;;28.90;;
57297;SDS011;43147;50.972;18.210;2024-03-02T14:00:36;40.40;;;26.90;;
57297;SDS011;43147;50.972;18.210;2024-03-02T14:03:04;36.70;;;27.30;;
57297;SDS011;43147;50.972;18.210;2024-03-02T14:05:31;41.00;;;25.20;;
57297;SDS011;43147;50.972;18.210;2024-03-02T14:07:57;43.70;;;27.30;;
57297;SDS011;43147;50.972;18.210;2024-03-02T14:10:24;38.30;;;25.80;;
57297;SDS011;43147;50.972;18.210;2024-03-02T14:12:49;40.10;;;27.20;;
57297;SDS011;43147;50.972;18.210;2024-03-02T14:15:15;43.80;;;27.30;;
57297;SDS011;43147;50.972;18.210;2024-03-02T14:17:40;42.90;;;28.40;;